Rosedale, IN (47874)

09:37 EST le 14 février 2016 (GMT -0500)
Sandcut/North Terre Haute | | Change Station
CLOSE
Current Station
Stations météorologiques personnelles
Location: Terre Haute, IN
Altitude: 590 ft
Stations météo à proximité
Avis météorologiques actifs: Winter Weather Advisory

Alt. 590 ft 39.56 °N, 87.30 °W | Updated 7 seconds ago

Couvert
Couvert
18.1 ° F
Paraît 12 ° F
N
4.3
Vent Variable Vent de ESE
Gusts 9.0 mph

Aujourd'hui
Haut(e) -- | Bas -- ° F
--% Risque de précip.
Hier
Haut(e) -- | Bas -- ° F
Precip. -- pouce
Pression 30.37 pouce
Visibilité 10.0 Miles terrestres
Nuages Couvert 8500 ft
Refroidissement éolien 12 ° F
Point de rosée 12 ° F
Humidité 75%
Précipitations 0.00 pouce
Profondeur de la couche neigeuse Non disponible.
7:43 AM 6:23 PM
Lune montante, 42% visible
METAR KHUF 141353Z 13009KT 10SM OVC085 M09/M12 A3034 RMK AO2 SLP283 T10891122
Pression 30.37 pouce
Visibilité 10.0 Miles terrestres
Nuages Couvert 8500 ft
Refroidissement éolien 12 ° F
Point de rosée 12 ° F
Humidité 75%
Précipitations 0.00 pouce
Profondeur de la couche neigeuse Non disponible.
7:43 AM 6:23 PM
Lune montante, 42% visible
METAR KHUF 141353Z 13009KT 10SM OVC085 M09/M12 A3034 RMK AO2 SLP283 T10891122

10-Day Weather Forecast

Almanac

Astronomie

Feb. 14, 2016 Lever Coucher
Temps réel
Crépuscule civil
Crépuscule nautique
Crépuscule astronomique
Lune
Durée de lumière visible
Longueur du jour
Tomorrow will be .
, % of the Moon is Illuminated

Extrêmes aujourd'hui

State Highs State Lows

Community

WunderPhotos

Upload Photos

1,892,773 Photos téléchargées !

WunderBlog® & News

Nearby

Qualité de l'air

  Qualité de l'air Indice de la qualité de l'air Polluant
Not available.

Épaisseur de neige

Station Depth Altitude

Activité sismique

Ville Distance Mag. Time & Date
Minimum magnitude displayed is 2.5.

Températures des eaux côtières

Lieu Température

Stations

Stations météo à proximité

Emplacement de la station Température Refroidissement éolien Point de rosée Humidité Vent Precip. Alt. Mise à jour Type
                   

Watches & Warnings

Winter Weather Advisory
Issued: 03:30 EST Feb. 14, 2016 – National Weather Service

... Winter Weather Advisory remains in effect until midnight EST
tonight...

* timing... snow beginning towards sunrise Sunday and then
diminishing Sunday night.

* Main impact... snow covered ... roads and poor travel
conditions. Snow accumulations of up to three inches are
possible.

Precautionary/preparedness actions...

A Winter Weather Advisory for snow means that periods of snow
will cause primarily travel difficulties. Be prepared for snow
covered roads and limited visibilities... and use caution while
driving.